Tiger — 9HA2271 — position and weather

sailwx.info

Track history (hours):
 
Tides and Currents Weather Stations Pressure Air Temp Water Temp Dewpoint Dewpoint Depression Visibility Wind Speed Wind Dir Waves Ship Positions

Tiger

Last reported at 2018-Jan-18 19:48 UTC. Time now 2018-Jan-19 07:55 UTC.
Position N 48°03' W 005°45'.

Length 231 m; draft 9.7 m.

Type: Cargo ship. MMSI: 248223000.

Date/timePositionNaut miles runAvg speedWind from/ knotsBaromVisibWave heightAir tempDewpointWater temp
2018-Jan-18 19:48N 48°03' W 005°45'12310.0
2018-Jan-18 07:31N 49°40' W 003°49'0 8.6
2018-Jan-18 07:28N 49°40' W 003°49'23 7.8
2018-Jan-18 04:31N 49°52' W 003°18'0 8.0
2018-Jan-18 04:30N 49°52' W 003°18'4 7.2
2018-Jan-18 03:59N 49°54' W 003°13'5 7.9
2018-Jan-18 03:23N 49°56' W 003°06'4 9.2
2018-Jan-18 03:00N 49°58' W 003°02'612.6
2018-Jan-18 02:30N 50°01' W 002°53'713.9
2018-Jan-18 02:00N 50°03' W 002°43'  
2018-Jan-12 14:58N 53°35' E 008°33'0 0.0
2018-Jan-12 14:28N 53°35' E 008°33'0 0.0
2018-Jan-12 13:58N 53°35' E 008°33'0 0.0
2018-Jan-12 13:28N 53°35' E 008°33'0 0.0
2018-Jan-12 12:58N 53°35' E 008°33'0 0.0
2018-Jan-12 12:28N 53°35' E 008°33'0 0.0
2018-Jan-12 11:58N 53°35' E 008°33'0 0.0
2018-Jan-12 11:28N 53°35' E 008°33'0 0.0
2018-Jan-12 10:58N 53°35' E 008°33'0 0.0
2018-Jan-12 10:25N 53°35' E 008°33'0 0.0
2018-Jan-12 09:58N 53°35' E 008°33'0 0.0
2018-Jan-12 09:28N 53°35' E 008°33'0 0.0
2018-Jan-12 08:58N 53°35' E 008°33'0 0.0
2018-Jan-12 08:28N 53°35' E 008°33'0 0.0
2018-Jan-12 07:58N 53°35' E 008°33'0 0.0
2018-Jan-12 07:28N 53°35' E 008°33'0 0.0
2018-Jan-12 06:58N 53°35' E 008°33'0 0.0
2018-Jan-12 06:28N 53°35' E 008°33'0 0.0
2018-Jan-12 05:58N 53°35' E 008°33'0 0.0
2018-Jan-12 05:28N 53°35' E 008°33'0 0.0
2018-Jan-12 04:58N 53°35' E 008°33'0 0.0
2018-Jan-12 04:28N 53°35' E 008°33'0 0.0
2018-Jan-12 03:58N 53°35' E 008°33'0 0.0
2018-Jan-12 03:28N 53°35' E 008°33'0 0.0
2018-Jan-12 02:58N 53°35' E 008°33'0 0.0
2018-Jan-12 02:28N 53°35' E 008°33'0 1.0
2018-Jan-12 02:00N 53°34' E 008°33'0 0.0
2018-Jan-12 01:30N 53°34' E 008°33'1 2.1
2018-Jan-12 01:00N 53°35' E 008°32'612.4
2018-Jan-12 00:30N 53°39' E 008°24'714.2
2018-Jan-12 00:00N 53°44' E 008°15'714.2
2018-Jan-11 23:30N 53°49' E 008°07'714.7
2018-Jan-11 23:00N 53°52' E 007°55'4 7.8
2018-Jan-11 22:30N 53°54' E 007°50'2 3.7
2018-Jan-11 21:58N 53°56' E 007°51'0 0.1
2018-Jan-11 21:28N 53°56' E 007°51'0 0.0
2018-Jan-11 20:58N 53°56' E 007°51'0 0.0
2018-Jan-11 19:04N 53°56' E 007°51'0 0.0
2018-Jan-11 16:19N 53°56' E 007°51'0 0.0
2018-Jan-11 15:52N 53°56' E 007°51'0 0.0
2018-Jan-11 15:28N 53°56' E 007°51'0 0.0
2018-Jan-11 14:55N 53°56' E 007°51'0 0.1
2018-Jan-11 14:28N 53°56' E 007°51'0 0.0
2018-Jan-11 13:58N 53°56' E 007°51'0 0.0
2018-Jan-11 13:25N 53°56' E 007°51'0 0.0
2018-Jan-11 12:55N 53°56' E 007°51'0 0.0
2018-Jan-11 12:28N 53°56' E 007°51'0 0.0
2018-Jan-11 11:55N 53°56' E 007°51'0 0.0
2018-Jan-11 11:28N 53°56' E 007°51'0 0.0
2018-Jan-11 10:52N 53°56' E 007°51'0 0.0
2018-Jan-11 10:28N 53°56' E 007°51'0 0.0
2018-Jan-11 09:58N 53°56' E 007°51'0 0.0
2018-Jan-11 09:28N 53°56' E 007°51'0 0.0
2018-Jan-11 08:58N 53°56' E 007°51'0 0.0
2018-Jan-11 08:28N 53°56' E 007°51'0 0.0
2018-Jan-11 07:58N 53°56' E 007°51'0 0.0
2018-Jan-11 07:28N 53°56' E 007°51'0 0.1
2018-Jan-11 06:55N 53°56' E 007°51'0 0.0
2018-Jan-11 06:28N 53°56' E 007°51'0 0.0
2018-Jan-11 05:58N 53°56' E 007°51'0 0.0
2018-Jan-11 05:28N 53°56' E 007°51'0 0.1
2018-Jan-11 04:58N 53°56' E 007°51'0 0.0
2018-Jan-11 04:22N 53°56' E 007°51'0 0.0
2018-Jan-11 03:58N 53°56' E 007°51'0 0.0
2018-Jan-11 03:28N 53°56' E 007°51'0 0.0
2018-Jan-11 02:58N 53°56' E 007°51'0 0.0
2018-Jan-11 02:28N 53°56' E 007°51'0 0.1
2018-Jan-11 01:58N 53°56' E 007°51'0 0.1
2018-Jan-11 01:28N 53°56' E 007°51'0 0.1
2018-Jan-11 00:58N 53°56' E 007°51'0 0.1
2018-Jan-11 00:25N 53°56' E 007°51'0 0.0
2018-Jan-10 23:58N 53°56' E 007°51'0 0.0
2018-Jan-10 23:28N 53°56' E 007°51'0 0.0
2018-Jan-10 22:55N 53°56' E 007°51'0 0.0
2018-Jan-10 22:28N 53°56' E 007°51'0 0.0
2018-Jan-10 21:52N 53°56' E 007°51'0 0.0
2018-Jan-10 21:16N 53°56' E 007°51'0 0.0
2018-Jan-10 20:52N 53°56' E 007°51'0 0.0
2018-Jan-10 20:28N 53°56' E 007°51'0 0.0
2018-Jan-10 19:58N 53°56' E 007°51'0 0.0
2018-Jan-10 19:28N 53°56' E 007°51'0 0.0
2018-Jan-10 18:55N 53°56' E 007°51'0 0.0
2018-Jan-10 18:19N 53°56' E 007°51'0 0.0
2018-Jan-10 17:58N 53°56' E 007°51'0 0.0
2018-Jan-10 17:13N 53°56' E 007°51'0 0.0
2018-Jan-10 16:58N 53°56' E 007°51'0 0.1
2018-Jan-10 15:43N 53°56' E 007°51'0 0.0
2018-Jan-10 14:19N 53°56' E 007°51'0 0.0
2018-Jan-10 13:58N 53°56' E 007°51'0 0.2
2018-Jan-10 13:28N 53°56' E 007°51'0 0.0
2018-Jan-10 12:19N 53°56' E 007°51'0 0.0
2018-Jan-10 11:07N 53°56' E 007°51'0 0.0
2018-Jan-10 09:49N 53°56' E 007°51'0 0.0
2018-Jan-10 09:25N 53°56' E 007°51'0 0.0
2018-Jan-10 08:49N 53°56' E 007°51'0 0.0
2018-Jan-10 07:22N 53°56' E 007°51'0 0.1
2018-Jan-10 06:46N 53°56' E 007°51'0 0.0
2018-Jan-10 06:22N 53°56' E 007°51'0 0.0
2018-Jan-10 05:58N 53°56' E 007°51'0 0.1
2018-Jan-10 05:25N 53°56' E 007°51'0 0.0
2018-Jan-10 04:55N 53°56' E 007°51'0 0.0
2018-Jan-10 04:28N 53°56' E 007°51'0 0.0
2018-Jan-10 03:58N 53°56' E 007°51'0 0.0
2018-Jan-10 03:28N 53°56' E 007°51'0 0.1
2018-Jan-10 02:58N 53°56' E 007°51'0 0.1
2018-Jan-10 02:28N 53°56' E 007°51'0 0.1
2018-Jan-10 01:58N 53°56' E 007°51'0 0.0
2018-Jan-10 00:43N 53°56' E 007°51'0 0.0
2018-Jan-10 00:25N 53°56' E 007°51'0 0.0
2018-Jan-09 23:52N 53°56' E 007°51'0 0.0
2018-Jan-09 23:28N 53°56' E 007°51'0 0.0
2018-Jan-09 17:40N 53°56' E 007°51'0 0.1
2018-Jan-09 17:19N 53°56' E 007°51'0 0.2
2018-Jan-09 16:58N 53°56' E 007°51'0 0.1
2018-Jan-09 16:22N 53°56' E 007°51'0 0.1
2018-Jan-09 15:49N 53°56' E 007°51'0 0.0
2018-Jan-09 15:28N 53°56' E 007°51'0 0.0
2018-Jan-09 14:52N 53°56' E 007°51'0 0.0
2018-Jan-09 14:28N 53°56' E 007°51'0 0.0
2018-Jan-09 12:58N 53°56' E 007°51'0 0.0
2018-Jan-09 12:25N 53°56' E 007°51'0 0.0
2018-Jan-09 10:01N 53°56' E 007°51'0 0.1
2018-Jan-09 09:58N 53°56' E 007°51'0 0.1
2018-Jan-09 09:28N 53°56' E 007°51'0 0.0
2018-Jan-09 08:19N 53°56' E 007°51'0 0.0
2018-Jan-09 07:55N 53°56' E 007°51'0 0.1
2018-Jan-09 07:16N 53°56' E 007°51'0 0.0
2018-Jan-09 06:49N 53°56' E 007°51'0 0.0
2018-Jan-09 06:22N 53°56' E 007°51'0 0.1
2018-Jan-09 05:55N 53°56' E 007°51'0 0.0
2018-Jan-09 05:25N 53°56' E 007°51'0 0.0
2018-Jan-09 04:52N 53°56' E 007°51'0 0.0
2018-Jan-09 03:31N 53°56' E 007°51'0 0.8
2018-Jan-09 03:25N 53°56' E 007°51'0 0.1
2018-Jan-09 02:49N 53°56' E 007°51'0 0.1
2018-Jan-09 01:13N 53°56' E 007°51'0 0.1
2018-Jan-09 00:52N 53°56' E 007°51'0 0.1
2018-Jan-09 00:25N 53°56' E 007°51'0 0.1
2018-Jan-08 22:43N 53°56' E 007°51'0 0.0
2018-Jan-08 22:25N 53°56' E 007°51'0 0.2
2018-Jan-08 21:46N 53°56' E 007°51'0 0.1
2018-Jan-08 20:07N 53°56' E 007°51'  
Track history (hours):
 
Tides and Currents Weather Stations Pressure Air Temp Water Temp Dewpoint Dewpoint Depression Visibility Wind Speed Wind Dir Waves Ship Positions

Tiger

Last reported at 2018-Jan-18 19:48 UTC. Time now 2018-Jan-19 07:55 UTC.
Position N 48°03' W 005°45'.

Length 231 m; draft 9.7 m.

Type: Cargo ship. MMSI: 248223000.

Date/timePositionNaut miles runAvg speedWind from/ knotsBaromVisibWave heightAir tempDewpointWater temp
2018-Jan-18 19:48N 48°03' W 005°45'12310.0
2018-Jan-18 07:31N 49°40' W 003°49'0 8.6
2018-Jan-18 07:28N 49°40' W 003°49'23 7.8
2018-Jan-18 04:31N 49°52' W 003°18'0 8.0
2018-Jan-18 04:30N 49°52' W 003°18'4 7.2
2018-Jan-18 03:59N 49°54' W 003°13'5 7.9
2018-Jan-18 03:23N 49°56' W 003°06'4 9.2
2018-Jan-18 03:00N 49°58' W 003°02'612.6
2018-Jan-18 02:30N 50°01' W 002°53'713.9
2018-Jan-18 02:00N 50°03' W 002°43'  
2018-Jan-12 14:58N 53°35' E 008°33'0 0.0
2018-Jan-12 14:28N 53°35' E 008°33'0 0.0
2018-Jan-12 13:58N 53°35' E 008°33'0 0.0
2018-Jan-12 13:28N 53°35' E 008°33'0 0.0
2018-Jan-12 12:58N 53°35' E 008°33'0 0.0
2018-Jan-12 12:28N 53°35' E 008°33'0 0.0
2018-Jan-12 11:58N 53°35' E 008°33'0 0.0
2018-Jan-12 11:28N 53°35' E 008°33'0 0.0
2018-Jan-12 10:58N 53°35' E 008°33'0 0.0
2018-Jan-12 10:25N 53°35' E 008°33'0 0.0
2018-Jan-12 09:58N 53°35' E 008°33'0 0.0
2018-Jan-12 09:28N 53°35' E 008°33'0 0.0
2018-Jan-12 08:58N 53°35' E 008°33'0 0.0
2018-Jan-12 08:28N 53°35' E 008°33'0 0.0
2018-Jan-12 07:58N 53°35' E 008°33'0 0.0
2018-Jan-12 07:28N 53°35' E 008°33'0 0.0
2018-Jan-12 06:58N 53°35' E 008°33'0 0.0
2018-Jan-12 06:28N 53°35' E 008°33'0 0.0
2018-Jan-12 05:58N 53°35' E 008°33'0 0.0
2018-Jan-12 05:28N 53°35' E 008°33'0 0.0
2018-Jan-12 04:58N 53°35' E 008°33'0 0.0
2018-Jan-12 04:28N 53°35' E 008°33'0 0.0
2018-Jan-12 03:58N 53°35' E 008°33'0 0.0
2018-Jan-12 03:28N 53°35' E 008°33'0 0.0
2018-Jan-12 02:58N 53°35' E 008°33'0 0.0
2018-Jan-12 02:28N 53°35' E 008°33'0 1.0
2018-Jan-12 02:00N 53°34' E 008°33'0 0.0
2018-Jan-12 01:30N 53°34' E 008°33'1 2.1
2018-Jan-12 01:00N 53°35' E 008°32'612.4
2018-Jan-12 00:30N 53°39' E 008°24'714.2
2018-Jan-12 00:00N 53°44' E 008°15'714.2
2018-Jan-11 23:30N 53°49' E 008°07'714.7
2018-Jan-11 23:00N 53°52' E 007°55'4 7.8
2018-Jan-11 22:30N 53°54' E 007°50'2 3.7
2018-Jan-11 21:58N 53°56' E 007°51'0 0.1
2018-Jan-11 21:28N 53°56' E 007°51'0 0.0
2018-Jan-11 20:58N 53°56' E 007°51'0 0.0
2018-Jan-11 19:04N 53°56' E 007°51'0 0.0
2018-Jan-11 16:19N 53°56' E 007°51'0 0.0
2018-Jan-11 15:52N 53°56' E 007°51'0 0.0
2018-Jan-11 15:28N 53°56' E 007°51'0 0.0
2018-Jan-11 14:55N 53°56' E 007°51'0 0.1
2018-Jan-11 14:28N 53°56' E 007°51'0 0.0
2018-Jan-11 13:58N 53°56' E 007°51'0 0.0
2018-Jan-11 13:25N 53°56' E 007°51'0 0.0
2018-Jan-11 12:55N 53°56' E 007°51'0 0.0
2018-Jan-11 12:28N 53°56' E 007°51'0 0.0
2018-Jan-11 11:55N 53°56' E 007°51'0 0.0
2018-Jan-11 11:28N 53°56' E 007°51'0 0.0
2018-Jan-11 10:52N 53°56' E 007°51'0 0.0
2018-Jan-11 10:28N 53°56' E 007°51'0 0.0
2018-Jan-11 09:58N 53°56' E 007°51'0 0.0
2018-Jan-11 09:28N 53°56' E 007°51'0 0.0
2018-Jan-11 08:58N 53°56' E 007°51'0 0.0
2018-Jan-11 08:28N 53°56' E 007°51'0 0.0
2018-Jan-11 07:58N 53°56' E 007°51'0 0.0
2018-Jan-11 07:28N 53°56' E 007°51'0 0.1
2018-Jan-11 06:55N 53°56' E 007°51'0 0.0
2018-Jan-11 06:28N 53°56' E 007°51'0 0.0
2018-Jan-11 05:58N 53°56' E 007°51'0 0.0
2018-Jan-11 05:28N 53°56' E 007°51'0 0.1
2018-Jan-11 04:58N 53°56' E 007°51'0 0.0
2018-Jan-11 04:22N 53°56' E 007°51'0 0.0
2018-Jan-11 03:58N 53°56' E 007°51'0 0.0
2018-Jan-11 03:28N 53°56' E 007°51'0 0.0
2018-Jan-11 02:58N 53°56' E 007°51'0 0.0
2018-Jan-11 02:28N 53°56' E 007°51'0 0.1
2018-Jan-11 01:58N 53°56' E 007°51'0 0.1
2018-Jan-11 01:28N 53°56' E 007°51'0 0.1
2018-Jan-11 00:58N 53°56' E 007°51'0 0.1
2018-Jan-11 00:25N 53°56' E 007°51'0 0.0
2018-Jan-10 23:58N 53°56' E 007°51'0 0.0
2018-Jan-10 23:28N 53°56' E 007°51'0 0.0
2018-Jan-10 22:55N 53°56' E 007°51'0 0.0
2018-Jan-10 22:28N 53°56' E 007°51'0 0.0
2018-Jan-10 21:52N 53°56' E 007°51'0 0.0
2018-Jan-10 21:16N 53°56' E 007°51'0 0.0
2018-Jan-10 20:52N 53°56' E 007°51'0 0.0
2018-Jan-10 20:28N 53°56' E 007°51'0 0.0
2018-Jan-10 19:58N 53°56' E 007°51'0 0.0
2018-Jan-10 19:28N 53°56' E 007°51'0 0.0
2018-Jan-10 18:55N 53°56' E 007°51'0 0.0
2018-Jan-10 18:19N 53°56' E 007°51'0 0.0
2018-Jan-10 17:58N 53°56' E 007°51'0 0.0
2018-Jan-10 17:13N 53°56' E 007°51'0 0.0
2018-Jan-10 16:58N 53°56' E 007°51'0 0.1
2018-Jan-10 15:43N 53°56' E 007°51'0 0.0
2018-Jan-10 14:19N 53°56' E 007°51'0 0.0
2018-Jan-10 13:58N 53°56' E 007°51'0 0.2
2018-Jan-10 13:28N 53°56' E 007°51'0 0.0
2018-Jan-10 12:19N 53°56' E 007°51'0 0.0
2018-Jan-10 11:07N 53°56' E 007°51'0 0.0
2018-Jan-10 09:49N 53°56' E 007°51'0 0.0
2018-Jan-10 09:25N 53°56' E 007°51'0 0.0
2018-Jan-10 08:49N 53°56' E 007°51'0 0.0
2018-Jan-10 07:22N 53°56' E 007°51'0 0.1
2018-Jan-10 06:46N 53°56' E 007°51'0 0.0
2018-Jan-10 06:22N 53°56' E 007°51'0 0.0
2018-Jan-10 05:58N 53°56' E 007°51'0 0.1
2018-Jan-10 05:25N 53°56' E 007°51'0 0.0
2018-Jan-10 04:55N 53°56' E 007°51'0 0.0
2018-Jan-10 04:28N 53°56' E 007°51'0 0.0
2018-Jan-10 03:58N 53°56' E 007°51'0 0.0
2018-Jan-10 03:28N 53°56' E 007°51'0 0.1
2018-Jan-10 02:58N 53°56' E 007°51'0 0.1
2018-Jan-10 02:28N 53°56' E 007°51'0 0.1
2018-Jan-10 01:58N 53°56' E 007°51'0 0.0
2018-Jan-10 00:43N 53°56' E 007°51'0 0.0
2018-Jan-10 00:25N 53°56' E 007°51'0 0.0
2018-Jan-09 23:52N 53°56' E 007°51'0 0.0
2018-Jan-09 23:28N 53°56' E 007°51'0 0.0
2018-Jan-09 17:40N 53°56' E 007°51'0 0.1
2018-Jan-09 17:19N 53°56' E 007°51'0 0.2
2018-Jan-09 16:58N 53°56' E 007°51'0 0.1
2018-Jan-09 16:22N 53°56' E 007°51'0 0.1
2018-Jan-09 15:49N 53°56' E 007°51'0 0.0
2018-Jan-09 15:28N 53°56' E 007°51'0 0.0
2018-Jan-09 14:52N 53°56' E 007°51'0 0.0
2018-Jan-09 14:28N 53°56' E 007°51'0 0.0
2018-Jan-09 12:58N 53°56' E 007°51'0 0.0
2018-Jan-09 12:25N 53°56' E 007°51'0 0.0
2018-Jan-09 10:01N 53°56' E 007°51'0 0.1
2018-Jan-09 09:58N 53°56' E 007°51'0 0.1
2018-Jan-09 09:28N 53°56' E 007°51'0 0.0
2018-Jan-09 08:19N 53°56' E 007°51'0 0.0
2018-Jan-09 07:55N 53°56' E 007°51'0 0.1
2018-Jan-09 07:16N 53°56' E 007°51'0 0.0
2018-Jan-09 06:49N 53°56' E 007°51'0 0.0
2018-Jan-09 06:22N 53°56' E 007°51'0 0.1
2018-Jan-09 05:55N 53°56' E 007°51'0 0.0
2018-Jan-09 05:25N 53°56' E 007°51'0 0.0
2018-Jan-09 04:52N 53°56' E 007°51'0 0.0
2018-Jan-09 03:31N 53°56' E 007°51'0 0.8
2018-Jan-09 03:25N 53°56' E 007°51'0 0.1
2018-Jan-09 02:49N 53°56' E 007°51'0 0.1
2018-Jan-09 01:13N 53°56' E 007°51'0 0.1
2018-Jan-09 00:52N 53°56' E 007°51'0 0.1
2018-Jan-09 00:25N 53°56' E 007°51'0 0.1
2018-Jan-08 22:43N 53°56' E 007°51'0 0.0
2018-Jan-08 22:25N 53°56' E 007°51'0 0.2
2018-Jan-08 21:46N 53°56' E 007°51'0 0.1
2018-Jan-08 20:07N 53°56' E 007°51'  

Dump ship's entire track history